createdAt,value
2022-08-26T00:00:43.360Z,99.52
2022-08-26T00:03:16.653Z,99.03
2022-08-26T00:05:51.245Z,98.59
2022-08-26T00:08:24.712Z,97.18
2022-08-26T00:10:55.100Z,97.23
2022-08-26T00:13:28.272Z,96.08
2022-08-26T00:16:01.809Z,94.91
2022-08-26T00:18:38.689Z,94.69
2022-08-26T00:21:13.308Z,94.74
2022-08-26T00:23:45.722Z,94.75
2022-08-26T00:26:18.441Z,94.98
2022-08-26T00:28:50.980Z,95.24
2022-08-26T00:31:23.370Z,99.04
2022-08-26T00:33:56.619Z,99.57
2022-08-26T00:36:29.737Z,99.48
2022-08-26T00:39:02.252Z,99.64
2022-08-26T00:41:34.771Z,100.00
2022-08-26T00:44:08.309Z,100.00
2022-08-26T00:46:46.814Z,100.00
2022-08-26T00:49:24.011Z,100.00
2022-08-26T00:51:59.006Z,100.00
2022-08-26T00:54:36.331Z,100.00
2022-08-26T00:57:15.898Z,100.00
2022-08-26T00:59:52.239Z,100.00
2022-08-26T01:02:25.038Z,100.00
2022-08-26T01:05:01.444Z,100.00
2022-08-26T01:07:37.311Z,100.00
2022-08-26T01:10:14.399Z,100.00
2022-08-26T01:12:52.319Z,100.00
2022-08-26T01:15:32.961Z,100.00
2022-08-26T01:18:07.811Z,100.00
2022-08-26T01:20:47.887Z,100.00
2022-08-26T01:23:21.706Z,100.00
2022-08-26T01:26:02.128Z,100.00
2022-08-26T01:28:51.662Z,100.00
2022-08-26T01:31:27.486Z,100.00
2022-08-26T01:34:11.117Z,100.00
2022-08-26T01:36:46.904Z,100.00
2022-08-26T01:39:23.221Z,100.00
2022-08-26T01:41:58.449Z,100.00
2022-08-26T01:44:42.441Z,100.00
2022-08-26T01:47:18.431Z,100.00
2022-08-26T01:49:54.469Z,100.00
2022-08-26T01:52:29.861Z,100.00
2022-08-26T01:55:02.861Z,100.00
2022-08-26T01:57:35.961Z,100.00
2022-08-26T02:00:13.530Z,100.00
2022-08-26T02:02:51.489Z,100.00
2022-08-26T02:05:25.298Z,100.00
2022-08-26T02:07:57.672Z,100.00
2022-08-26T02:10:30.598Z,100.00
2022-08-26T02:13:03.340Z,100.00
2022-08-26T02:15:36.319Z,100.00
2022-08-26T02:18:14.013Z,100.00
2022-08-26T02:20:46.781Z,100.00
2022-08-26T02:23:24.465Z,100.00
2022-08-26T02:26:02.439Z,100.00
2022-08-26T02:28:40.319Z,100.00
2022-08-26T02:31:12.940Z,100.00
2022-08-26T02:33:45.731Z,100.00
2022-08-26T02:36:23.001Z,100.00
2022-08-26T02:38:55.579Z,100.00
2022-08-26T02:41:28.819Z,100.00
2022-08-26T02:44:01.411Z,100.00
2022-08-26T02:46:33.712Z,100.00
2022-08-26T02:49:09.751Z,100.00
2022-08-26T02:51:42.458Z,100.00
2022-08-26T02:54:15.927Z,100.00
2022-08-26T02:56:49.022Z,100.00
2022-08-26T02:59:24.477Z,100.00
2022-08-26T03:01:57.444Z,100.00
2022-08-26T03:04:33.466Z,100.00
2022-08-26T03:07:06.472Z,100.00
2022-08-26T03:09:38.811Z,100.00
2022-08-26T03:12:12.591Z,100.00
2022-08-26T03:14:46.241Z,100.00
2022-08-26T03:17:18.639Z,100.00
2022-08-26T03:19:57.036Z,100.00
2022-08-26T03:22:30.321Z,100.00
2022-08-26T03:25:03.461Z,100.00
2022-08-26T03:27:35.859Z,100.00
2022-08-26T03:30:29.754Z,100.00
2022-08-26T03:33:00.527Z,100.00
2022-08-26T03:35:33.832Z,100.00
2022-08-26T03:38:08.538Z,100.00
2022-08-26T03:40:42.798Z,100.00
2022-08-26T03:43:17.589Z,100.00
2022-08-26T03:45:51.927Z,100.00
2022-08-26T03:48:25.935Z,100.00
2022-08-26T03:50:58.014Z,100.00
2022-08-26T03:53:31.009Z,100.00
2022-08-26T03:56:03.550Z,100.00
2022-08-26T03:58:37.098Z,100.00
2022-08-26T04:01:10.795Z,100.00
2022-08-26T04:04:15.415Z,100.00
2022-08-26T04:06:48.181Z,100.00
2022-08-26T04:09:23.076Z,100.00
2022-08-26T04:12:01.661Z,100.00
2022-08-26T04:14:37.842Z,100.00
2022-08-26T04:17:11.997Z,100.00
2022-08-26T04:19:44.341Z,100.00
2022-08-26T04:22:16.682Z,100.00
2022-08-26T04:24:57.229Z,100.00
2022-08-26T04:27:29.881Z,100.00
2022-08-26T04:30:03.018Z,100.00
2022-08-26T04:32:35.928Z,100.00
2022-08-26T04:35:10.070Z,100.00
2022-08-26T04:37:44.231Z,100.00
2022-08-26T04:40:16.972Z,100.00
2022-08-26T04:42:49.272Z,100.00
2022-08-26T04:45:22.819Z,100.00
2022-08-26T04:47:58.195Z,100.00
2022-08-26T04:50:31.020Z,100.00
2022-08-26T04:53:04.503Z,100.00
2022-08-26T04:55:42.669Z,100.00
2022-08-26T04:58:20.209Z,100.00
2022-08-26T05:00:54.488Z,100.00
2022-08-26T05:03:30.364Z,100.00
2022-08-26T05:06:07.019Z,100.00
2022-08-26T05:08:42.201Z,100.00
2022-08-26T05:11:15.743Z,100.00
2022-08-26T05:13:48.000Z,100.00
2022-08-26T05:16:20.722Z,100.00
2022-08-26T05:18:55.143Z,100.00
2022-08-26T05:21:29.549Z,100.00
2022-08-26T05:24:06.599Z,100.00
2022-08-26T05:26:38.891Z,100.00
2022-08-26T05:29:12.489Z,100.00
2022-08-26T05:31:44.866Z,100.00
2022-08-26T05:34:17.799Z,100.00
2022-08-26T05:36:54.029Z,100.00
2022-08-26T05:39:27.210Z,100.00
2022-08-26T05:41:59.938Z,100.00
2022-08-26T05:44:35.887Z,100.00
2022-08-26T05:47:26.042Z,99.62
2022-08-26T05:49:58.589Z,98.74
2022-08-26T05:52:31.512Z,98.24
2022-08-26T05:55:04.663Z,97.82
2022-08-26T05:57:40.460Z,95.57
2022-08-26T06:00:18.409Z,96.03
2022-08-26T06:02:51.442Z,94.19
2022-08-26T06:05:22.149Z,94.45
2022-08-26T06:08:14.531Z,94.23
2022-08-26T06:10:52.831Z,93.33
2022-08-26T06:13:31.867Z,91.83
2022-08-26T06:16:07.673Z,92.18
2022-08-26T06:18:42.625Z,89.46
2022-08-26T06:21:21.221Z,88.09
2022-08-26T06:24:12.944Z,89.17
2022-08-26T06:26:51.662Z,87.86
2022-08-26T06:29:26.124Z,86.47
2022-08-26T06:32:00.168Z,87.08
2022-08-26T06:34:33.002Z,86.94
2022-08-26T06:37:07.051Z,86.52
2022-08-26T06:39:41.529Z,85.70
2022-08-26T06:42:13.892Z,85.50
2022-08-26T06:44:47.741Z,86.90
2022-08-26T06:47:39.104Z,83.39
2022-08-26T06:50:37.749Z,83.68
2022-08-26T06:53:35.464Z,85.25
2022-08-26T06:56:46.179Z,85.16
2022-08-26T06:59:47.176Z,82.64
2022-08-26T07:02:47.018Z,83.78
2022-08-26T07:05:19.838Z,82.82
2022-08-26T07:08:11.585Z,82.80
2022-08-26T07:10:45.399Z,79.80
2022-08-26T07:13:37.978Z,83.79
2022-08-26T07:16:25.639Z,83.17
2022-08-26T07:19:29.825Z,84.88
2022-08-26T07:22:30.261Z,83.19
2022-08-26T07:25:28.769Z,83.44
2022-08-26T07:28:01.857Z,82.89
2022-08-26T07:30:36.075Z,83.65
2022-08-26T07:33:09.082Z,82.54
2022-08-26T07:35:44.844Z,82.32
2022-08-26T07:38:17.230Z,80.60
2022-08-26T07:40:49.639Z,80.94
2022-08-26T07:43:20.739Z,81.39
2022-08-26T07:45:56.329Z,79.80
2022-08-26T07:48:29.152Z,79.57
2022-08-26T07:51:03.539Z,79.21
2022-08-26T07:53:38.259Z,80.69
2022-08-26T07:56:11.468Z,80.86
2022-08-26T07:58:50.872Z,79.12
2022-08-26T08:01:25.913Z,75.62
2022-08-26T08:03:59.570Z,76.28
2022-08-26T08:06:37.871Z,74.22
2022-08-26T08:09:11.307Z,74.20
2022-08-26T08:11:44.051Z,71.77
2022-08-26T08:14:18.641Z,71.71
2022-08-26T08:16:55.063Z,71.93
2022-08-26T08:19:36.487Z,74.88
2022-08-26T08:22:17.436Z,72.98
2022-08-26T08:24:53.125Z,70.89
2022-08-26T08:27:26.091Z,72.64
2022-08-26T08:29:58.781Z,74.47
2022-08-26T08:32:31.521Z,73.18
2022-08-26T08:35:02.536Z,73.88
2022-08-26T08:37:43.941Z,73.88
2022-08-26T08:40:19.498Z,70.61
2022-08-26T08:42:54.580Z,68.46
2022-08-26T08:45:36.650Z,72.18
2022-08-26T08:48:16.031Z,72.69
2022-08-26T08:50:51.510Z,67.40
2022-08-26T08:53:32.431Z,68.79
2022-08-26T08:56:14.110Z,72.01
2022-08-26T08:58:56.751Z,72.18
2022-08-26T09:01:52.414Z,70.83
2022-08-26T09:04:47.289Z,67.35
2022-08-26T09:07:25.417Z,66.63
2022-08-26T09:10:01.330Z,69.26
2022-08-26T09:12:35.879Z,65.47
2022-08-26T09:15:18.300Z,65.22
2022-08-26T09:17:58.621Z,65.41
2022-08-26T09:20:45.524Z,68.23
2022-08-26T09:23:19.526Z,68.93
2022-08-26T09:25:56.843Z,69.76
2022-08-26T09:28:31.619Z,65.11
2022-08-26T09:31:13.880Z,64.20
2022-08-26T09:33:46.621Z,63.72
2022-08-26T09:36:26.502Z,65.61
2022-08-26T09:38:58.970Z,67.31
2022-08-26T09:41:33.909Z,65.29
2022-08-26T09:44:29.623Z,65.76
2022-08-26T09:47:05.699Z,64.71
2022-08-26T09:49:40.251Z,64.52
2022-08-26T09:52:22.461Z,66.80
2022-08-26T09:55:07.282Z,64.57
2022-08-26T09:57:50.089Z,66.59
2022-08-26T10:00:33.810Z,60.95
2022-08-26T10:03:09.073Z,60.85
2022-08-26T10:05:45.052Z,60.67
2022-08-26T10:08:30.599Z,61.32
2022-08-26T10:11:07.209Z,61.86
2022-08-26T10:13:42.549Z,63.16
2022-08-26T10:16:20.531Z,61.33
2022-08-26T10:19:00.693Z,62.91
2022-08-26T10:21:38.531Z,60.91
2022-08-26T10:24:13.241Z,62.11
2022-08-26T10:26:53.683Z,57.24
2022-08-26T10:29:31.384Z,61.79
2022-08-26T10:32:07.520Z,59.33
2022-08-26T10:34:48.011Z,56.02
2022-08-26T10:37:25.509Z,55.14
2022-08-26T10:40:04.037Z,56.59
2022-08-26T10:42:41.855Z,54.61
2022-08-26T10:45:20.062Z,54.49
2022-08-26T10:47:57.392Z,53.79
2022-08-26T10:50:34.122Z,52.94
2022-08-26T10:53:15.550Z,52.68
2022-08-26T10:55:56.792Z,52.75
2022-08-26T10:58:55.341Z,51.20
2022-08-26T11:01:43.940Z,50.52
2022-08-26T11:04:30.087Z,49.82
2022-08-26T11:07:43.169Z,50.57
2022-08-26T11:11:02.367Z,51.18
2022-08-26T11:14:02.317Z,50.23
2022-08-26T11:16:45.138Z,50.72
2022-08-26T11:20:08.976Z,50.34
2022-08-26T11:40:42.752Z,43.51
2022-08-26T11:43:26.378Z,43.83
2022-08-26T11:46:12.713Z,44.09
2022-08-26T11:48:47.307Z,44.21
2022-08-26T11:51:27.894Z,43.87
2022-08-26T11:54:16.384Z,43.16
2022-08-26T11:57:14.051Z,43.38
2022-08-26T11:59:47.204Z,43.89
2022-08-26T12:02:21.867Z,43.87
2022-08-26T12:04:56.613Z,42.54
2022-08-26T12:07:31.729Z,44.54
2022-08-26T12:10:08.960Z,44.75
2022-08-26T12:12:42.874Z,41.85
2022-08-26T12:15:19.260Z,41.25
2022-08-26T12:17:54.581Z,42.69
2022-08-26T12:20:48.639Z,40.86
2022-08-26T12:23:31.389Z,42.39
2022-08-26T12:26:07.279Z,40.97
2022-08-26T12:28:47.122Z,39.81
2022-08-26T12:31:27.042Z,41.70
2022-08-26T12:34:02.737Z,43.50
2022-08-26T12:36:39.282Z,43.41
2022-08-26T12:39:15.060Z,43.97
2022-08-26T12:41:53.732Z,42.83
2022-08-26T12:44:53.826Z,42.69
2022-08-26T12:47:41.958Z,42.06
2022-08-26T12:50:24.019Z,42.06
2022-08-26T12:53:01.043Z,41.81
2022-08-26T12:55:44.381Z,42.34
2022-08-26T12:58:25.240Z,42.32
2022-08-26T13:01:00.487Z,42.74
2022-08-26T13:03:43.788Z,41.65
2022-08-26T13:06:26.175Z,42.38
2022-08-26T13:09:02.316Z,42.82
2022-08-26T13:11:37.121Z,42.59
2022-08-26T13:14:21.031Z,43.36
2022-08-26T13:17:03.480Z,43.18
2022-08-26T13:19:36.380Z,42.15
2022-08-26T13:22:09.432Z,41.14
2022-08-26T13:24:44.962Z,41.90
2022-08-26T13:27:20.931Z,41.39
2022-08-26T13:29:57.494Z,40.97
2022-08-26T13:32:32.090Z,42.27
2022-08-26T13:35:06.002Z,44.92
2022-08-26T13:37:38.611Z,43.75
2022-08-26T13:40:15.429Z,43.38
2022-08-26T13:42:49.501Z,45.06
2022-08-26T13:45:22.280Z,45.85
2022-08-26T13:47:54.705Z,46.35
2022-08-26T13:50:28.934Z,45.34
2022-08-26T13:53:01.711Z,46.22
2022-08-26T13:55:34.265Z,43.71
2022-08-26T13:58:06.664Z,43.38
2022-08-26T14:00:42.629Z,43.32
2022-08-26T14:03:16.594Z,42.51
2022-08-26T14:05:49.209Z,42.54
2022-08-26T14:08:26.250Z,43.85
2022-08-26T14:10:58.916Z,44.91
2022-08-26T14:13:31.709Z,42.82
2022-08-26T14:16:07.183Z,38.88
2022-08-26T14:18:46.185Z,38.42
2022-08-26T14:21:21.742Z,37.29
2022-08-26T14:24:00.292Z,37.96
2022-08-26T14:26:33.500Z,36.75
2022-08-26T14:29:06.465Z,37.68
2022-08-26T14:31:40.036Z,38.19
2022-08-26T14:34:14.712Z,38.81
2022-08-26T14:36:47.188Z,39.84
2022-08-26T14:39:19.672Z,38.60
2022-08-26T14:41:56.537Z,39.00
2022-08-26T14:44:34.069Z,37.67
2022-08-26T14:47:08.600Z,36.79
2022-08-26T14:49:41.163Z,36.75
2022-08-26T14:52:13.719Z,37.43
2022-08-26T14:54:46.235Z,36.85
2022-08-26T14:57:17.317Z,36.94
2022-08-26T14:59:50.673Z,37.56
2022-08-26T15:02:33.614Z,36.87
2022-08-26T15:05:08.750Z,36.57
2022-08-26T15:07:45.031Z,36.52
2022-08-26T15:10:19.373Z,36.82
2022-08-26T15:12:51.864Z,37.86
2022-08-26T15:15:25.840Z,38.08
2022-08-26T15:17:58.110Z,39.30
2022-08-26T15:23:09.077Z,40.47
2022-08-26T15:25:43.922Z,41.64
2022-08-26T15:28:16.831Z,41.78
2022-08-26T15:30:49.428Z,41.59
2022-08-26T15:33:22.190Z,42.37
2022-08-26T15:35:52.719Z,42.77
2022-08-26T15:38:24.949Z,43.90
2022-08-26T15:41:00.999Z,43.54
2022-08-26T15:43:35.772Z,44.12
2022-08-26T15:46:12.047Z,44.20
2022-08-26T15:48:45.141Z,44.36
2022-08-26T15:51:26.192Z,44.53
2022-08-26T15:53:59.301Z,44.46
2022-08-26T15:56:34.458Z,44.50
2022-08-26T15:59:08.759Z,44.32
2022-08-26T16:01:41.394Z,44.34
2022-08-26T16:04:12.122Z,45.06
2022-08-26T16:06:47.831Z,44.32
2022-08-26T16:09:24.480Z,43.63
2022-08-26T16:11:57.711Z,43.94
2022-08-26T16:14:30.652Z,44.00
2022-08-26T16:17:03.967Z,44.22
2022-08-26T16:19:36.874Z,44.70
2022-08-26T16:22:10.420Z,45.16
2022-08-26T16:24:43.570Z,45.63
2022-08-26T16:27:14.410Z,46.47
2022-08-26T16:29:49.461Z,46.98
2022-08-26T16:32:21.812Z,47.17
2022-08-26T16:34:56.448Z,46.42
2022-08-26T16:37:33.712Z,46.39
2022-08-26T16:40:13.296Z,47.59
2022-08-26T16:42:46.121Z,47.14
2022-08-26T16:45:17.024Z,46.19
2022-08-26T16:47:49.684Z,44.72
2022-08-26T16:50:25.109Z,45.74
2022-08-26T16:52:59.462Z,45.70
2022-08-26T16:55:35.789Z,46.05
2022-08-26T16:58:14.942Z,48.66
2022-08-26T17:00:47.681Z,49.14
2022-08-26T17:03:21.969Z,51.28
2022-08-26T17:05:56.554Z,58.18
2022-08-26T17:08:29.391Z,59.94
2022-08-26T17:11:02.611Z,62.95
2022-08-26T17:13:36.209Z,67.17
2022-08-26T17:16:11.942Z,69.83
2022-08-26T17:18:44.532Z,69.90
2022-08-26T17:21:16.969Z,68.05
2022-08-26T17:23:49.832Z,71.27
2022-08-26T17:26:22.549Z,69.59
2022-08-26T17:28:55.371Z,75.43
2022-08-26T17:31:26.774Z,75.99
2022-08-26T17:33:59.469Z,78.92
2022-08-26T17:36:30.023Z,78.06
2022-08-26T17:39:02.271Z,81.51
2022-08-26T17:41:37.586Z,82.79
2022-08-26T17:44:10.564Z,81.89
2022-08-26T17:46:41.031Z,82.28
2022-08-26T17:49:13.259Z,84.41
2022-08-26T17:51:47.101Z,85.72
2022-08-26T17:54:19.559Z,83.43
2022-08-26T17:56:55.004Z,87.05
2022-08-26T17:59:30.714Z,85.45
2022-08-26T18:02:03.541Z,87.19
2022-08-26T18:04:35.889Z,85.77
2022-08-26T18:07:08.541Z,87.60
2022-08-26T18:09:42.717Z,93.07
2022-08-26T18:12:16.111Z,91.13
2022-08-26T18:14:48.591Z,91.51
2022-08-26T18:17:21.291Z,90.03
2022-08-26T18:19:54.811Z,88.52
2022-08-26T18:22:28.124Z,90.69
2022-08-26T18:25:01.839Z,82.18
2022-08-26T18:27:36.351Z,85.01
2022-08-26T18:30:16.660Z,89.71
2022-08-26T18:32:50.219Z,91.27
2022-08-26T18:35:22.871Z,88.48
2022-08-26T18:37:55.406Z,87.38
2022-08-26T18:40:28.158Z,89.52
2022-08-26T18:42:59.032Z,88.69
2022-08-26T18:45:32.212Z,89.46
2022-08-26T18:48:08.223Z,84.61
2022-08-26T18:50:47.221Z,82.93
2022-08-26T18:53:21.332Z,87.99
2022-08-26T18:55:54.218Z,85.18
2022-08-26T18:58:25.882Z,85.12
2022-08-26T19:01:00.273Z,87.12
2022-08-26T19:03:39.420Z,85.16
2022-08-26T19:06:22.271Z,82.54
2022-08-26T19:08:57.981Z,85.64
2022-08-26T19:11:37.248Z,80.65
2022-08-26T19:14:13.421Z,83.72
2022-08-26T19:16:48.430Z,82.69
2022-08-26T19:19:25.440Z,82.16
2022-08-26T19:21:59.805Z,83.55
2022-08-26T19:24:36.197Z,85.08
2022-08-26T19:27:11.723Z,83.95
2022-08-26T19:29:49.043Z,77.94
2022-08-26T19:32:24.622Z,84.70
2022-08-26T19:34:57.385Z,86.99
2022-08-26T19:37:38.140Z,84.19
2022-08-26T19:40:12.886Z,82.58
2022-08-26T19:42:46.505Z,82.53
2022-08-26T19:45:25.143Z,84.43
2022-08-26T19:47:59.282Z,85.49
2022-08-26T19:50:37.986Z,78.80
2022-08-26T19:53:19.551Z,80.60
2022-08-26T19:55:56.142Z,75.25
2022-08-26T19:58:28.702Z,75.06
2022-08-26T20:01:01.209Z,74.53
2022-08-26T20:03:34.048Z,72.46
2022-08-26T20:06:10.725Z,74.12
2022-08-26T20:08:44.612Z,77.05
2022-08-26T20:11:19.046Z,80.01
2022-08-26T20:13:51.650Z,78.51
2022-08-26T20:16:24.293Z,82.82
2022-08-26T20:19:14.464Z,84.07
2022-08-26T20:21:47.365Z,87.04
2022-08-26T20:24:21.340Z,84.22
2022-08-26T20:26:54.102Z,86.42
2022-08-26T20:29:27.780Z,83.52
2022-08-26T20:32:00.631Z,82.45
2022-08-26T20:34:35.591Z,83.76
2022-08-26T20:37:08.784Z,85.87
2022-08-26T20:39:39.551Z,85.34
2022-08-26T20:42:19.795Z,82.83
2022-08-26T20:44:54.374Z,84.40
2022-08-26T20:47:27.382Z,84.71
2022-08-26T20:50:09.939Z,86.38
2022-08-26T20:52:44.220Z,92.00
2022-08-26T20:55:18.890Z,94.75
2022-08-26T20:57:51.897Z,95.81
2022-08-26T21:00:26.560Z,97.26
2022-08-26T21:03:02.212Z,98.29
2022-08-26T21:05:38.790Z,99.07
2022-08-26T21:08:12.984Z,100.00
2022-08-26T21:10:45.851Z,99.95
2022-08-26T21:13:18.249Z,100.00
2022-08-26T21:15:51.105Z,100.00
2022-08-26T21:18:23.413Z,100.00
2022-08-26T21:20:56.151Z,100.00
2022-08-26T21:23:29.369Z,100.00
2022-08-26T21:26:07.642Z,100.00
2022-08-26T21:28:42.889Z,100.00
2022-08-26T21:31:19.620Z,100.00
2022-08-26T21:33:52.351Z,100.00
2022-08-26T21:36:25.329Z,100.00
2022-08-26T21:39:00.249Z,100.00
2022-08-26T21:41:32.641Z,100.00
2022-08-26T21:44:05.460Z,100.00
2022-08-26T21:46:38.591Z,100.00
2022-08-26T21:49:13.951Z,100.00
2022-08-26T21:51:49.469Z,100.00
2022-08-26T21:54:22.093Z,100.00
2022-08-26T21:56:53.271Z,100.00
2022-08-26T21:59:25.672Z,100.00
2022-08-26T22:01:59.670Z,100.00
2022-08-26T22:04:33.029Z,100.00
2022-08-26T22:07:07.610Z,100.00
2022-08-26T22:09:41.567Z,100.00
2022-08-26T22:12:18.649Z,99.37
2022-08-26T22:14:51.043Z,95.60
2022-08-26T22:17:23.639Z,96.64
2022-08-26T22:19:56.053Z,99.89
2022-08-26T22:22:30.360Z,100.00
2022-08-26T22:25:04.650Z,100.00
2022-08-26T22:27:40.343Z,100.00
2022-08-26T22:30:16.309Z,100.00
2022-08-26T22:32:50.721Z,100.00
2022-08-26T22:35:29.371Z,100.00
2022-08-26T22:38:03.765Z,100.00
2022-08-26T22:40:37.082Z,100.00
2022-08-26T22:43:08.048Z,100.00
2022-08-26T22:45:44.197Z,100.00
2022-08-26T22:48:19.289Z,100.00
2022-08-26T22:50:53.318Z,100.00
2022-08-26T22:53:27.683Z,100.00
2022-08-26T22:56:00.660Z,100.00
2022-08-26T22:58:37.879Z,100.00
2022-08-26T23:01:26.211Z,100.00
2022-08-26T23:03:58.744Z,100.00
2022-08-26T23:06:31.150Z,100.00
2022-08-26T23:09:03.569Z,100.00
2022-08-26T23:11:42.325Z,100.00
2022-08-26T23:14:14.797Z,100.00
2022-08-26T23:16:47.972Z,100.00
2022-08-26T23:19:21.118Z,100.00
2022-08-26T23:21:53.769Z,100.00
2022-08-26T23:24:26.073Z,100.00
2022-08-26T23:26:58.800Z,100.00
2022-08-26T23:29:31.320Z,100.00
2022-08-26T23:32:05.925Z,100.00
2022-08-26T23:34:55.442Z,100.00
2022-08-26T23:37:31.911Z,100.00
2022-08-26T23:40:06.240Z,100.00
2022-08-26T23:42:38.874Z,100.00
2022-08-26T23:45:14.210Z,100.00
2022-08-26T23:47:47.031Z,100.00
2022-08-26T23:50:20.120Z,100.00
2022-08-26T23:53:11.602Z,99.98
2022-08-26T23:55:43.649Z,99.95
2022-08-26T23:58:16.737Z,99.68
